الصفحة الرئيسية
METAR-TAF:

METAR-TAF

مطار :

سنغافورة, سنغافورة

دائرة عرض: 01-22N, خط طول: 103-55E, ارتفاع: 18 متر

مراقبة الطقس الحالي

تاريخ ووقت الإصدار 1ساعة و 2 دقيقة قبل الساعة 16:00UTC
ريح 1 عقدة من الشمال
درجة الحرارة 25°درجة مئوية
الرطوبة 94%
ضغط 1012 hPa
الرؤية 10 كم أو أكثر
غيوم قليلة على ارتفاع 1700 قدم
غيوم مفككة على ارتفاع 16000 قدم

METAR: WSAP 211600Z 36001KT 9999 FEW017 BKN160 25/24 Q1012

زمن: 01:02 (17:02 UTC)

توقعات

تاريخ ووقت الإصدار 6ساعات و 2 دقيقة قبل الساعة 11:00UTC
التوقعات صالحة من21 الساعة 12 UTC إلى 22 الساعة 18 UTC
ريح 5 عقدة من الجنوب/الجنوب الغربي
الرؤية 10 كم أو أكثر
غيوم قليلة على ارتفاع 1500 قدم
غيوم متفرقة على ارتفاع 2000 قدم
غيوم مفككة على ارتفاع 3000 قدم
مؤقت
من 22 الساعة 06 UTC إلى 22 الساعة 10 UTC
الرؤية: 3000 متر
غيوم قليلة على ارتفاع 1200 قدم, مزنة ركامية.
غيوم مفككة على ارتفاع 1500 قدم
عاصفة رعدية, مطر

TAF: WSAP 211100Z 2112/2218 21005KT 9999 FEW015 SCT020 BKN030 TEMPO 2206/2210 3000 TSRA FEW012CB BKN015

أرصاد الطقس والتوقعات من أكثر من 4000 مطار (تقارير الطقس للمطار METAR والتنبؤ بالطقس بالمطارTAF).

المحطات المتاحة هي النقط الصفراء والحمراء على الخريطة.

حرك المؤشر فوق النقطة لمعرفة اسم المحطة.

ثم انقر لمعرفة أرصاد وتوقعات الطقس.

لتغيير الخارطة: اضغط على الأزرار الخضراء مع رمز الصليب الأسود للتكبير. على الزر الأخضر مع شرطة للتصغير، أو على الأسهم الخضراء للخرائط المجاورة.


METAR-TAF: